Nissin Maru — JL6697 — position and weather

sailwx.info

Track history (hours):
 
Tides and Currents Weather Stations Pressure Air Temp Water Temp Dewpoint Dewpoint Depression Visibility Wind Speed Wind Dir Waves Ship Positions

Nissin Maru

Last reported at 2017-Sep-08 08:03 UTC. Time now 2017-Sep-23 23:45 UTC.
Position N 34°37' E 134°54'.
Warning: this ship's position is 15 days out of date.

Length 73 m; draft 4 m.

Type: Cargo ship. MMSI: 431501779.

Date/timePositionNaut miles runAvg speedWind from/ knotsBaromVisibWave heightAir tempDewpointWater temp
2017-Sep-08 08:03N 34°37' E 134°54'111.3
2017-Sep-08 08:00N 34°37' E 134°55'510.5
2017-Sep-08 07:30N 34°37' E 135°01'4 8.1
2017-Sep-08 07:00N 34°36' E 135°06'611.7
2017-Sep-08 06:31N 34°36' E 135°13'612.2
2017-Sep-08 06:00N 34°36' E 135°20'5 9.1
2017-Sep-08 05:30N 34°35' E 135°26'0 0.1
2017-Sep-08 05:00N 34°35' E 135°26'0 0.0
2017-Sep-08 04:26N 34°35' E 135°26'0 0.0
2017-Sep-08 04:00N 34°35' E 135°26'0 0.0
2017-Sep-08 03:30N 34°35' E 135°26'0 0.0
2017-Sep-08 02:59N 34°35' E 135°26'0 0.0
2017-Sep-08 02:30N 34°35' E 135°26'0 0.0
2017-Sep-08 02:00N 34°35' E 135°26'3 5.1
2017-Sep-08 01:31N 34°36' E 135°23'611.4
2017-Sep-08 01:00N 34°36' E 135°16'612.0
2017-Sep-08 00:30N 34°35' E 135°09'611.4
2017-Sep-08 00:00N 34°36' E 135°03'  
2017-Sep-04 05:56N 33°57' E 134°55'613.0
2017-Sep-04 05:30N 34°02' E 134°58'713.1
2017-Sep-04 05:00N 34°08' E 135°02'612.9
2017-Sep-04 04:30N 34°14' E 135°05'1 0.9
2017-Sep-04 03:27N 34°15' E 135°05'0 0.0
2017-Sep-04 02:57N 34°15' E 135°05'0 0.0
2017-Sep-04 02:27N 34°15' E 135°05'0 0.0
2017-Sep-04 02:00N 34°15' E 135°05'0 0.0
2017-Sep-04 01:30N 34°15' E 135°05'0 0.0
2017-Sep-04 01:00N 34°15' E 135°05'0 0.0
2017-Sep-04 00:30N 34°15' E 135°05'0 0.1
2017-Sep-04 00:00N 34°15' E 135°05'0 0.0
2017-Sep-03 23:30N 34°15' E 135°05'0 0.0
2017-Sep-03 22:57N 34°15' E 135°05'0 0.0
2017-Sep-03 22:30N 34°15' E 135°05'0 0.0
2017-Sep-03 22:00N 34°15' E 135°05'0 0.0
2017-Sep-03 21:30N 34°15' E 135°05'0 0.0
2017-Sep-03 21:00N 34°15' E 135°05'0 0.0
2017-Sep-03 20:30N 34°15' E 135°05'0 0.0
2017-Sep-03 20:00N 34°15' E 135°05'0 0.0
2017-Sep-03 19:30N 34°15' E 135°05'0 0.0
2017-Sep-03 18:57N 34°15' E 135°05'0 0.0
2017-Sep-03 18:30N 34°15' E 135°05'0 0.0
2017-Sep-03 18:00N 34°15' E 135°05'0 0.0
2017-Sep-03 17:30N 34°15' E 135°05'2 3.2
2017-Sep-03 17:00N 34°14' E 135°07'1 1.7
2017-Sep-03 16:28N 34°14' E 135°08'0 0.0
2017-Sep-03 15:58N 34°14' E 135°08'0 0.0
2017-Sep-03 15:28N 34°14' E 135°08'0 0.0
2017-Sep-03 14:55N 34°14' E 135°08'0 0.0
2017-Sep-03 13:58N 34°14' E 135°08'0 0.0
2017-Sep-03 13:25N 34°14' E 135°08'0 0.0
2017-Sep-03 12:55N 34°14' E 135°08'0 0.0
2017-Sep-03 12:25N 34°14' E 135°08'0 0.0
2017-Sep-03 11:55N 34°14' E 135°08'0 0.0
2017-Sep-03 11:25N 34°14' E 135°08'0 0.0
2017-Sep-03 10:58N 34°14' E 135°08'0 0.0
2017-Sep-03 10:28N 34°14' E 135°08'0 0.0
2017-Sep-03 09:58N 34°14' E 135°08'0 0.0
2017-Sep-03 09:28N 34°14' E 135°08'0 0.0
2017-Sep-03 08:58N 34°14' E 135°08'0 0.0
2017-Sep-03 08:25N 34°14' E 135°08'0 0.0
2017-Sep-03 07:58N 34°14' E 135°08'0 0.0
2017-Sep-03 07:28N 34°14' E 135°08'0 0.0
2017-Sep-03 06:55N 34°14' E 135°08'0 0.0
2017-Sep-03 06:25N 34°14' E 135°08'0 0.0
2017-Sep-03 05:58N 34°14' E 135°08'0 0.0
2017-Sep-03 05:28N 34°14' E 135°08'0 0.0
2017-Sep-03 04:49N 34°14' E 135°08'0 0.0
2017-Sep-03 04:25N 34°14' E 135°08'0 0.0
2017-Sep-03 03:58N 34°14' E 135°08'0 0.0
2017-Sep-03 03:28N 34°14' E 135°08'0 0.0
2017-Sep-03 02:55N 34°14' E 135°08'0 0.0
2017-Sep-03 02:25N 34°14' E 135°08'0 0.0
2017-Sep-03 01:55N 34°14' E 135°08'0 0.0
2017-Sep-03 01:25N 34°14' E 135°08'0 0.0
2017-Sep-03 00:55N 34°14' E 135°08'0 0.0
2017-Sep-03 00:19N 34°14' E 135°08'0 0.0
2017-Sep-02 23:58N 34°14' E 135°08'0 0.0
2017-Sep-02 23:28N 34°14' E 135°08'0 0.0
2017-Sep-02 22:58N 34°14' E 135°08'0 0.0
2017-Sep-02 22:28N 34°14' E 135°08'0 0.0
2017-Sep-02 21:58N 34°14' E 135°08'0 0.0
2017-Sep-02 21:28N 34°14' E 135°08'0 0.0
2017-Sep-02 20:58N 34°14' E 135°08'0 0.0
2017-Sep-02 20:28N 34°14' E 135°08'0 0.0
2017-Sep-02 19:58N 34°14' E 135°08'0 0.0
2017-Sep-02 19:28N 34°14' E 135°08'0 0.0
2017-Sep-02 18:55N 34°14' E 135°08'0 0.0
2017-Sep-02 18:28N 34°14' E 135°08'0 0.0
2017-Sep-02 17:58N 34°14' E 135°08'0 0.0
2017-Sep-02 17:28N 34°14' E 135°08'0 0.0
2017-Sep-02 16:58N 34°14' E 135°08'0 0.0
2017-Sep-02 16:28N 34°14' E 135°08'0 0.0
2017-Sep-02 15:58N 34°14' E 135°08'0 0.0
2017-Sep-02 15:28N 34°14' E 135°08'0 0.0
2017-Sep-02 14:58N 34°14' E 135°08'0 0.0
2017-Sep-02 14:28N 34°14' E 135°08'1 2.2
2017-Sep-02 14:00N 34°14' E 135°07'2 3.2
2017-Sep-02 13:28N 34°15' E 135°05'0 0.0
2017-Sep-02 12:49N 34°15' E 135°05'0 0.0
2017-Sep-02 12:28N 34°15' E 135°05'0 0.0
2017-Sep-02 11:52N 34°15' E 135°05'0 0.0
2017-Sep-02 11:28N 34°15' E 135°05'0 0.0
2017-Sep-02 10:58N 34°15' E 135°05'0 0.0
2017-Sep-02 10:28N 34°15' E 135°05'0 0.1
2017-Sep-02 09:58N 34°15' E 135°05'0 0.1
2017-Sep-02 09:25N 34°15' E 135°05'0 0.0
2017-Sep-02 08:58N 34°15' E 135°05'1 3.1
2017-Sep-02 08:31N 34°15' E 135°03'611.1
2017-Sep-02 07:59N 34°21' E 135°04'611.1
2017-Sep-02 07:29N 34°27' E 135°04'511.0
2017-Sep-02 07:00N 34°32' E 135°04'5 9.3
2017-Sep-02 06:30N 34°36' E 135°02'  
Track history (hours):
 
Tides and Currents Weather Stations Pressure Air Temp Water Temp Dewpoint Dewpoint Depression Visibility Wind Speed Wind Dir Waves Ship Positions

Nissin Maru

Last reported at 2017-Sep-08 08:03 UTC. Time now 2017-Sep-23 23:45 UTC.
Position N 34°37' E 134°54'.
Warning: this ship's position is 15 days out of date.

Length 73 m; draft 4 m.

Type: Cargo ship. MMSI: 431501779.

Date/timePositionNaut miles runAvg speedWind from/ knotsBaromVisibWave heightAir tempDewpointWater temp
2017-Sep-08 08:03N 34°37' E 134°54'111.3
2017-Sep-08 08:00N 34°37' E 134°55'510.5
2017-Sep-08 07:30N 34°37' E 135°01'4 8.1
2017-Sep-08 07:00N 34°36' E 135°06'611.7
2017-Sep-08 06:31N 34°36' E 135°13'612.2
2017-Sep-08 06:00N 34°36' E 135°20'5 9.1
2017-Sep-08 05:30N 34°35' E 135°26'0 0.1
2017-Sep-08 05:00N 34°35' E 135°26'0 0.0
2017-Sep-08 04:26N 34°35' E 135°26'0 0.0
2017-Sep-08 04:00N 34°35' E 135°26'0 0.0
2017-Sep-08 03:30N 34°35' E 135°26'0 0.0
2017-Sep-08 02:59N 34°35' E 135°26'0 0.0
2017-Sep-08 02:30N 34°35' E 135°26'0 0.0
2017-Sep-08 02:00N 34°35' E 135°26'3 5.1
2017-Sep-08 01:31N 34°36' E 135°23'611.4
2017-Sep-08 01:00N 34°36' E 135°16'612.0
2017-Sep-08 00:30N 34°35' E 135°09'611.4
2017-Sep-08 00:00N 34°36' E 135°03'  
2017-Sep-04 05:56N 33°57' E 134°55'613.0
2017-Sep-04 05:30N 34°02' E 134°58'713.1
2017-Sep-04 05:00N 34°08' E 135°02'612.9
2017-Sep-04 04:30N 34°14' E 135°05'1 0.9
2017-Sep-04 03:27N 34°15' E 135°05'0 0.0
2017-Sep-04 02:57N 34°15' E 135°05'0 0.0
2017-Sep-04 02:27N 34°15' E 135°05'0 0.0
2017-Sep-04 02:00N 34°15' E 135°05'0 0.0
2017-Sep-04 01:30N 34°15' E 135°05'0 0.0
2017-Sep-04 01:00N 34°15' E 135°05'0 0.0
2017-Sep-04 00:30N 34°15' E 135°05'0 0.1
2017-Sep-04 00:00N 34°15' E 135°05'0 0.0
2017-Sep-03 23:30N 34°15' E 135°05'0 0.0
2017-Sep-03 22:57N 34°15' E 135°05'0 0.0
2017-Sep-03 22:30N 34°15' E 135°05'0 0.0
2017-Sep-03 22:00N 34°15' E 135°05'0 0.0
2017-Sep-03 21:30N 34°15' E 135°05'0 0.0
2017-Sep-03 21:00N 34°15' E 135°05'0 0.0
2017-Sep-03 20:30N 34°15' E 135°05'0 0.0
2017-Sep-03 20:00N 34°15' E 135°05'0 0.0
2017-Sep-03 19:30N 34°15' E 135°05'0 0.0
2017-Sep-03 18:57N 34°15' E 135°05'0 0.0
2017-Sep-03 18:30N 34°15' E 135°05'0 0.0
2017-Sep-03 18:00N 34°15' E 135°05'0 0.0
2017-Sep-03 17:30N 34°15' E 135°05'2 3.2
2017-Sep-03 17:00N 34°14' E 135°07'1 1.7
2017-Sep-03 16:28N 34°14' E 135°08'0 0.0
2017-Sep-03 15:58N 34°14' E 135°08'0 0.0
2017-Sep-03 15:28N 34°14' E 135°08'0 0.0
2017-Sep-03 14:55N 34°14' E 135°08'0 0.0
2017-Sep-03 13:58N 34°14' E 135°08'0 0.0
2017-Sep-03 13:25N 34°14' E 135°08'0 0.0
2017-Sep-03 12:55N 34°14' E 135°08'0 0.0
2017-Sep-03 12:25N 34°14' E 135°08'0 0.0
2017-Sep-03 11:55N 34°14' E 135°08'0 0.0
2017-Sep-03 11:25N 34°14' E 135°08'0 0.0
2017-Sep-03 10:58N 34°14' E 135°08'0 0.0
2017-Sep-03 10:28N 34°14' E 135°08'0 0.0
2017-Sep-03 09:58N 34°14' E 135°08'0 0.0
2017-Sep-03 09:28N 34°14' E 135°08'0 0.0
2017-Sep-03 08:58N 34°14' E 135°08'0 0.0
2017-Sep-03 08:25N 34°14' E 135°08'0 0.0
2017-Sep-03 07:58N 34°14' E 135°08'0 0.0
2017-Sep-03 07:28N 34°14' E 135°08'0 0.0
2017-Sep-03 06:55N 34°14' E 135°08'0 0.0
2017-Sep-03 06:25N 34°14' E 135°08'0 0.0
2017-Sep-03 05:58N 34°14' E 135°08'0 0.0
2017-Sep-03 05:28N 34°14' E 135°08'0 0.0
2017-Sep-03 04:49N 34°14' E 135°08'0 0.0
2017-Sep-03 04:25N 34°14' E 135°08'0 0.0
2017-Sep-03 03:58N 34°14' E 135°08'0 0.0
2017-Sep-03 03:28N 34°14' E 135°08'0 0.0
2017-Sep-03 02:55N 34°14' E 135°08'0 0.0
2017-Sep-03 02:25N 34°14' E 135°08'0 0.0
2017-Sep-03 01:55N 34°14' E 135°08'0 0.0
2017-Sep-03 01:25N 34°14' E 135°08'0 0.0
2017-Sep-03 00:55N 34°14' E 135°08'0 0.0
2017-Sep-03 00:19N 34°14' E 135°08'0 0.0
2017-Sep-02 23:58N 34°14' E 135°08'0 0.0
2017-Sep-02 23:28N 34°14' E 135°08'0 0.0
2017-Sep-02 22:58N 34°14' E 135°08'0 0.0
2017-Sep-02 22:28N 34°14' E 135°08'0 0.0
2017-Sep-02 21:58N 34°14' E 135°08'0 0.0
2017-Sep-02 21:28N 34°14' E 135°08'0 0.0
2017-Sep-02 20:58N 34°14' E 135°08'0 0.0
2017-Sep-02 20:28N 34°14' E 135°08'0 0.0
2017-Sep-02 19:58N 34°14' E 135°08'0 0.0
2017-Sep-02 19:28N 34°14' E 135°08'0 0.0
2017-Sep-02 18:55N 34°14' E 135°08'0 0.0
2017-Sep-02 18:28N 34°14' E 135°08'0 0.0
2017-Sep-02 17:58N 34°14' E 135°08'0 0.0
2017-Sep-02 17:28N 34°14' E 135°08'0 0.0
2017-Sep-02 16:58N 34°14' E 135°08'0 0.0
2017-Sep-02 16:28N 34°14' E 135°08'0 0.0
2017-Sep-02 15:58N 34°14' E 135°08'0 0.0
2017-Sep-02 15:28N 34°14' E 135°08'0 0.0
2017-Sep-02 14:58N 34°14' E 135°08'0 0.0
2017-Sep-02 14:28N 34°14' E 135°08'1 2.2
2017-Sep-02 14:00N 34°14' E 135°07'2 3.2
2017-Sep-02 13:28N 34°15' E 135°05'0 0.0
2017-Sep-02 12:49N 34°15' E 135°05'0 0.0
2017-Sep-02 12:28N 34°15' E 135°05'0 0.0
2017-Sep-02 11:52N 34°15' E 135°05'0 0.0
2017-Sep-02 11:28N 34°15' E 135°05'0 0.0
2017-Sep-02 10:58N 34°15' E 135°05'0 0.0
2017-Sep-02 10:28N 34°15' E 135°05'0 0.1
2017-Sep-02 09:58N 34°15' E 135°05'0 0.1
2017-Sep-02 09:25N 34°15' E 135°05'0 0.0
2017-Sep-02 08:58N 34°15' E 135°05'1 3.1
2017-Sep-02 08:31N 34°15' E 135°03'611.1
2017-Sep-02 07:59N 34°21' E 135°04'611.1
2017-Sep-02 07:29N 34°27' E 135°04'511.0
2017-Sep-02 07:00N 34°32' E 135°04'5 9.3
2017-Sep-02 06:30N 34°36' E 135°02'  

Dump ship's entire track history